<$BlogRSDUrl$>

Sunday, September 14, 2003

FUJAIRAH AIRPORT / METEOROLOGICAL OFFICE

140400Z 11002KT CAVOK 33/31 Q1005 A2968=

Saturday, September 13, 2003

FUJAIRAH AIRPORT / METEOROLOGICAL OFFICE

140400Z 11002KT CAVOK 33/31 Q1005 A2968=

This page is powered by Blogger. Isn't yours?